Time;durP1;ratioP1;P1;durP2;ratioP2;P2;SDS_P1;SDS_P2;PMS_P1;PMS_P2;Temp;Humidity;BMP_temperature;BMP_pressure;BME280_temperature;BME280_humidity;BME280_pressure;Samples;Min_cycle;Max_cycle;Signal;HPM_P1;HPM_P2
2022/06/21 00:01:22;;;;;;;;;;;19.50;67.80;;;;;;5037611;28;20027;-79
2022/06/21 00:03:49;;;;;;;3.20;2.30;;;19.50;67.20;;;;;;5053466;28;20280;-79
2022/06/21 00:06:21;;;;;;;2.10;1.67;;;19.50;67.10;;;;;;5037047;28;20021;-80
2022/06/21 00:08:53;;;;;;;5.20;2.70;;;19.50;67.20;;;;;;5036820;28;20549;-78
2022/06/21 00:11:30;;;;;;;4.15;2.13;;;19.30;68.10;;;;;;5036849;28;20033;-79
2022/06/21 00:13:56;;;;;;;4.95;2.40;;;19.10;69.00;;;;;;5037034;28;20056;-79
2022/06/21 00:16:24;;;;;;;7.20;2.40;;;19.00;68.90;;;;;;5036864;28;20485;-79
2022/06/21 00:18:50;;;;;;;5.10;2.95;;;19.10;69.10;;;;;;5036531;28;20052;-79
2022/06/21 00:21:19;;;;;;;4.45;2.58;;;19.10;68.80;;;;;;5036279;28;20033;-79
2022/06/21 00:23:47;;;;;;;4.05;2.13;;;19.20;68.50;;;;;;5036803;28;20036;-79
2022/06/21 00:26:14;;;;;;;5.75;1.83;;;19.20;68.40;;;;;;5036646;28;20021;-78
2022/06/21 00:28:41;;;;;;;3.10;2.53;;;19.30;68.10;;;;;;5036712;28;20223;-78
2022/06/21 00:31:20;;;;;;;3.05;1.80;;;19.30;68.00;;;;;;5036491;28;20029;-79
2022/06/21 00:33:49;;;;;;;3.28;2.38;;;19.30;67.90;;;;;;5054396;28;20037;-79
2022/06/21 00:36:25;;;;;;;3.88;2.60;;;19.30;67.60;;;;;;5036464;28;20025;-78
2022/06/21 00:38:52;;;;;;;4.13;2.25;;;19.30;67.80;;;;;;5035484;28;20040;-79
2022/06/21 00:41:21;;;;;;;5.38;2.15;;;18.90;68.70;;;;;;5035809;28;20112;-78
2022/06/21 00:43:52;;;;;;;4.28;2.60;;;18.90;68.90;;;;;;5036511;28;20033;-76
2022/06/21 00:46:44;;;;;;;3.45;2.45;;;18.90;68.30;;;;;;5049630;28;20044;-78
2022/06/21 00:49:24;;;;;;;4.57;2.53;;;18.80;68.90;;;;;;5016336;28;20457;-78
2022/06/21 00:51:57;;;;;;;2.60;1.90;;;18.80;68.70;;;;;;5052636;28;20087;-78
2022/06/21 00:54:45;;;;;;;2.97;2.13;;;18.70;68.90;;;;;;5036082;28;20476;-77
2022/06/21 00:57:18;;;;;;;2.33;1.80;;;18.60;69.00;;;;;;5036245;28;20040;-79
2022/06/21 00:59:47;;;;;;;4.15;2.20;;;18.70;68.70;;;;;;5035730;28;20029;-77
2022/06/21 01:02:33;;;;;;;3.17;1.92;;;18.80;68.00;;;;;;5036150;28;20373;-77
2022/06/21 01:05:02;;;;;;;4.90;2.00;;;18.80;67.50;;;;;;5052434;28;20033;-77
2022/06/21 01:07:28;;;;;;;10.60;1.88;;;18.90;67.50;;;;;;5035937;28;20548;-76
2022/06/21 01:10:00;;;;;;;3.30;2.22;;;18.80;67.50;;;;;;5052368;28;20084;-76
2022/06/21 01:12:40;;;;;;;3.20;1.83;;;18.80;67.70;;;;;;5035835;28;20029;-78
2022/06/21 01:15:21;;;;;;;4.32;1.75;;;18.70;67.90;;;;;;5035762;28;20057;-79
2022/06/21 01:17:49;;;;;;;3.08;1.50;;;18.40;68.60;;;;;;5035911;28;20029;-79
2022/06/21 01:20:20;;;;;;;4.18;1.90;;;18.40;68.70;;;;;;5053323;28;20028;-78
2022/06/21 01:23:01;;;;;;;3.22;2.10;;;18.50;68.60;;;;;;5035232;28;20040;-78
2022/06/21 01:25:48;;;;;;;4.40;1.67;;;18.60;68.00;;;;;;5035640;28;20028;-79
2022/06/21 01:28:15;;;;;;;3.22;1.88;;;18.50;68.10;;;;;;5035727;28;20446;-79
2022/06/21 01:30:45;;;;;;;3.33;1.85;;;18.50;67.80;;;;;;5035627;28;20036;-79
2022/06/21 01:33:14;;;;;;;3.15;1.60;;;18.50;68.00;;;;;;5035387;28;20421;-79
2022/06/21 01:35:44;;;;;;;3.25;1.98;;;18.50;68.20;;;;;;5035443;28;20025;-79
2022/06/21 01:38:15;;;;;;;4.28;1.88;;;18.50;68.10;;;;;;5035243;28;20021;-79
2022/06/21 01:40:44;;;;;;;3.97;1.80;;;18.50;68.10;;;;;;5035562;28;20551;-78
2022/06/21 01:43:15;;;;;;;2.85;1.75;;;18.30;68.10;;;;;;5035502;28;20421;-79
2022/06/21 01:45:52;;;;;;;2.80;1.50;;;18.30;68.20;;;;;;5035127;28;20049;-79
2022/06/21 01:48:26;;;;;;;1.70;1.40;;;18.30;68.10;;;;;;5035187;28;20489;-79
2022/06/21 01:50:56;;;;;;;4.45;1.60;;;18.30;67.90;;;;;;5034989;28;20115;-79
2022/06/21 01:53:24;;;;;;;1.92;1.77;;;18.20;68.00;;;;;;5034654;28;20029;-78
2022/06/21 01:56:00;;;;;;;2.35;1.73;;;18.20;67.80;;;;;;5051796;28;20508;-78
2022/06/21 01:58:30;;;;;;;2.85;1.60;;;18.10;68.40;;;;;;5035146;28;20029;-79
2022/06/21 02:01:05;;;;;;;2.42;1.58;;;18.00;68.50;;;;;;5034969;28;20021;-77
2022/06/21 02:03:34;;;;;;;2.58;1.85;;;17.90;68.80;;;;;;5034825;28;20115;-77
2022/06/21 02:06:04;;;;;;;4.65;1.85;;;17.90;68.60;;;;;;5035112;28;20032;-77
2022/06/21 02:08:39;;;;;;;2.85;1.73;;;17.70;69.40;;;;;;5035103;28;20481;-77
2022/06/21 02:11:11;;;;;;;2.58;1.77;;;17.70;69.70;;;;;;5034862;28;20029;-77
2022/06/21 02:13:43;;;;;;;1.92;1.58;;;17.80;69.30;;;;;;5034904;28;20175;-77
2022/06/21 02:16:20;;;;;;;5.20;1.92;;;17.80;68.60;;;;;;5035116;28;20023;-77
2022/06/21 02:18:56;;;;;;;4.47;1.50;;;17.80;68.50;;;;;;5034990;28;20117;-76
2022/06/21 02:21:36;;;;;;;5.47;1.63;;;17.90;68.40;;;;;;5034918;28;20027;-77
2022/06/21 02:24:02;;;;;;;4.80;1.42;;;17.90;68.60;;;;;;5034578;28;20033;-76
2022/06/21 02:26:32;;;;;;;5.50;2.00;;;17.90;68.50;;;;;;5034711;28;20027;-76
2022/06/21 02:28:57;;;;;;;2.63;1.73;;;17.90;68.30;;;;;;5050420;28;20044;-78
2022/06/21 02:31:26;;;;;;;2.53;2.05;;;17.80;68.70;;;;;;5035046;28;20021;-77
2022/06/21 02:33:55;;;;;;;2.17;1.60;;;17.90;68.80;;;;;;5034655;28;20021;-77
2022/06/21 02:36:26;;;;;;;1.75;1.55;;;17.90;68.50;;;;;;5034613;28;20033;-77
2022/06/21 02:38:56;;;;;;;5.38;2.17;;;17.80;68.60;;;;;;5034756;28;20021;-77
2022/06/21 02:41:42;;;;;;;2.60;1.63;;;17.70;68.90;;;;;;5034788;28;20021;-77
2022/06/21 02:44:17;;;;;;;2.28;1.40;;;17.70;69.40;;;;;;5034642;28;20393;-77
2022/06/21 02:46:49;;;;;;;3.72;1.77;;;17.70;69.70;;;;;;5015015;28;20124;-77
2022/06/21 02:49:20;;;;;;;4.75;1.88;;;17.70;69.30;;;;;;5031244;28;20029;-77
2022/06/21 02:51:54;;;;;;;2.35;1.88;;;17.70;69.00;;;;;;5031500;28;20025;-77
2022/06/21 02:54:32;;;;;;;3.60;1.80;;;17.50;69.90;;;;;;5014617;28;20092;-77
2022/06/21 02:57:01;;;;;;;2.30;1.73;;;17.50;70.00;;;;;;5014883;28;20176;-77
2022/06/21 02:59:28;;;;;;;2.88;1.63;;;17.60;69.90;;;;;;5014545;28;20087;-78
2022/06/21 03:02:04;;;;;;;1.60;1.50;;;17.60;69.70;;;;;;5014944;28;20029;-78
2022/06/21 03:04:35;;;;;;;5.38;2.72;;;17.70;69.50;;;;;;5034140;28;20387;-78
2022/06/21 03:07:02;;;;;;;3.28;2.00;;;17.70;69.20;;;;;;5034916;28;20503;-78
2022/06/21 03:09:28;;;;;;;2.45;1.77;;;17.40;70.00;;;;;;5018280;28;20032;-77
2022/06/21 03:12:05;;;;;;;3.05;2.20;;;17.20;71.00;;;;;;5018266;28;20029;-77
2022/06/21 03:14:34;;;;;;;2.95;1.73;;;17.30;70.90;;;;;;5018139;28;20033;-77
2022/06/21 03:17:02;;;;;;;3.08;1.52;;;17.40;70.60;;;;;;5018268;28;20488;-77
2022/06/21 03:19:41;;;;;;;2.60;2.00;;;17.40;70.30;;;;;;5018138;28;20359;-78
2022/06/21 03:22:32;;;;;;;3.00;1.98;;;17.50;70.90;;;;;;5018015;28;20108;-76
2022/06/21 03:25:00;;;;;;;2.17;1.77;;;17.50;69.80;;;;;;5034720;28;20044;-76
2022/06/21 03:27:56;;;;;;;2.40;1.70;;;17.40;70.40;;;;;;5018037;28;20501;-78
2022/06/21 03:30:35;;;;;;;3.20;1.80;;;17.40;70.10;;;;;;5011698;28;20033;-76
2022/06/21 03:33:03;;;;;;;2.50;1.98;;;17.00;71.70;;;;;;5034278;28;20029;-78
2022/06/21 03:35:33;;;;;;;2.00;1.80;;;17.00;71.90;;;;;;5018013;28;20041;-79
2022/06/21 03:37:59;;;;;;;12.15;4.25;;;17.00;71.70;;;;;;5017666;28;20032;-79
2022/06/21 03:43:24;;;;;;;4.85;2.20;;;17.40;71.20;;;;;;5035589;28;20131;-78
2022/06/21 03:45:53;;;;;;;4.65;2.30;;;17.50;70.50;;;;;;5031035;28;20045;-78
2022/06/21 03:48:33;;;;;;;4.07;2.53;;;17.50;70.50;;;;;;5037220;28;20028;-76
2022/06/21 03:51:09;;;;;;;3.10;2.08;;;17.60;70.30;;;;;;5037399;28;20051;-75
2022/06/21 03:53:42;;;;;;;3.80;2.22;;;17.60;70.30;;;;;;5036905;28;20039;-77
2022/06/21 03:56:30;;;;;;;2.40;1.70;;;17.60;70.20;;;;;;5037332;28;20055;-77
2022/06/21 03:59:10;;;;;;;2.08;1.70;;;17.70;70.10;;;;;;5054028;28;20485;-77
2022/06/21 04:01:54;;;;;;;1.73;1.63;;;17.70;69.90;;;;;;5037201;28;20079;-75
2022/06/21 04:04:38;;;;;;;3.83;2.15;;;17.70;69.60;;;;;;5037221;28;20525;-76
2022/06/21 04:07:23;;;;;;;2.85;2.25;;;17.80;69.50;;;;;;5037158;28;20057;-76
2022/06/21 04:10:22;;;;;;;5.87;1.83;;;17.60;69.60;;;;;;5036997;28;20040;-76
2022/06/21 04:13:05;;;;;;;2.17;1.65;;;17.60;70.00;;;;;;5037112;28;20032;-76
2022/06/21 04:15:59;;;;;;;3.55;2.10;;;17.70;70.10;;;;;;5035972;28;20083;-76
2022/06/21 04:18:42;;;;;;;3.22;2.17;;;17.80;70.00;;;;;;5036801;28;20021;-76
2022/06/21 04:21:26;;;;;;;3.30;2.35;;;17.80;69.70;;;;;;5037047;28;20025;-77
2022/06/21 04:24:16;;;;;;;3.97;2.47;;;17.80;69.50;;;;;;5053398;28;20366;-77
2022/06/21 04:26:51;;;;;;;3.10;2.03;;;17.60;70.80;;;;;;5036641;28;20033;-77
2022/06/21 04:29:32;;;;;;;5.07;2.67;;;17.60;70.40;;;;;;5036654;28;20033;-76
2022/06/21 04:32:07;;;;;;;2.22;2.00;;;17.50;70.50;;;;;;5036684;28;20028;-76
2022/06/21 04:35:07;;;;;;;4.68;2.65;;;17.50;71.00;;;;;;5036558;28;20033;-76
2022/06/21 04:37:45;;;;;;;2.25;2.05;;;17.40;71.10;;;;;;5015208;28;20033;-75
2022/06/21 04:40:32;;;;;;;2.03;1.83;;;17.30;71.70;;;;;;5036676;28;20033;-76
2022/06/21 04:43:03;;;;;;;4.78;2.42;;;17.30;71.90;;;;;;5036348;28;20504;-75
2022/06/21 04:45:43;;;;;;;4.20;2.70;;;17.20;71.70;;;;;;5036110;28;20056;-76
2022/06/21 04:48:17;;;;;;;6.40;2.58;;;17.00;72.30;;;;;;5036510;28;20059;-76
2022/06/21 04:50:48;;;;;;;4.18;2.67;;;17.00;72.30;;;;;;5036383;28;20017;-76
2022/06/21 04:53:51;;;;;;;5.70;2.90;;;16.80;73.30;;;;;;5036188;28;20029;-76
2022/06/21 04:56:40;;;;;;;5.57;2.85;;;16.90;73.30;;;;;;5035984;28;20036;-76
2022/06/21 04:59:14;;;;;;;4.38;2.55;;;16.90;73.30;;;;;;5036128;28;20545;-75
2022/06/21 05:01:41;;;;;;;2.50;1.40;;;16.90;72.90;;;;;;5020216;28;20451;-76
2022/06/21 05:04:31;;;;;;;3.30;2.47;;;16.90;73.70;;;;;;5035278;28;20044;-77
2022/06/21 05:06:58;;;;;;;3.55;2.47;;;16.90;72.70;;;;;;5035680;28;20021;-75
2022/06/21 05:09:29;;;;;;;5.13;2.97;;;16.70;73.50;;;;;;5019573;28;20029;-75
2022/06/21 05:12:25;;;;;;;3.08;2.40;;;16.70;73.70;;;;;;5052427;28;20043;-76
2022/06/21 05:14:56;;;;;;;4.78;2.75;;;16.80;73.60;;;;;;5030584;28;20086;-76
2022/06/21 05:17:23;;;;;;;3.53;2.10;;;16.70;73.50;;;;;;5035563;28;20116;-76
2022/06/21 05:19:57;;;;;;;4.20;2.40;;;16.90;74.20;;;;;;5035610;28;20526;-77
2022/06/21 05:22:30;;;;;;;3.95;2.53;;;17.10;73.00;;;;;;5052141;28;20067;-76
2022/06/21 05:24:57;;;;;;;6.03;2.58;;;17.00;72.30;;;;;;5035499;28;20079;-76
2022/06/21 05:27:28;;;;;;;3.25;2.00;;;17.10;72.30;;;;;;5035133;28;20032;-77
2022/06/21 05:30:03;;;;;;;2.92;2.50;;;17.00;72.50;;;;;;5035233;28;20033;-77
2022/06/21 05:32:34;;;;;;;5.32;2.70;;;17.20;72.00;;;;;;5034923;28;20553;-76
2022/06/21 05:35:09;;;;;;;3.60;2.30;;;17.10;72.40;;;;;;5035041;28;20079;-76
2022/06/21 05:37:39;;;;;;;5.77;2.50;;;17.30;72.30;;;;;;5035107;28;20044;-76
2022/06/21 05:40:29;;;;;;;2.90;2.20;;;17.30;71.70;;;;;;5034917;28;20295;-76
2022/06/21 05:42:55;;;;;;;4.00;2.83;;;17.50;71.20;;;;;;5035244;28;20479;-77
2022/06/21 05:45:29;;;;;;;4.55;2.50;;;17.80;70.30;;;;;;5025121;28;20128;-77
2022/06/21 05:48:06;;;;;;;3.60;2.45;;;17.90;69.50;;;;;;5014786;28;20048;-75
2022/06/21 05:50:34;;;;;;;6.65;3.08;;;18.00;69.00;;;;;;5014545;28;20025;-76
2022/06/21 05:53:21;;;;;;;7.22;3.13;;;18.20;68.60;;;;;;5031520;28;20064;-76
2022/06/21 05:55:48;;;;;;;5.88;3.25;;;18.10;69.20;;;;;;5014928;28;20021;-76
2022/06/21 05:58:21;;;;;;;4.13;2.53;;;18.40;68.50;;;;;;5015669;28;20026;-78
2022/06/21 06:01:48;;;;;;;2.63;1.85;;;18.80;68.50;;;;;;5031603;28;20026;-76
2022/06/21 06:04:47;;;;;;;4.68;3.42;;;19.20;66.00;;;;;;4961536;28;20095;-76
2022/06/21 06:07:27;;;;;;;5.00;3.45;;;19.60;64.30;;;;;;5011950;28;20040;-76
2022/06/21 06:09:56;;;;;;;5.47;3.78;;;19.90;62.20;;;;;;5015280;28;20021;-75
2022/06/21 06:12:30;;;;;;;7.63;4.03;;;20.00;60.30;;;;;;5015942;28;20021;-77
2022/06/21 06:15:05;;;;;;;7.32;3.70;;;20.10;60.20;;;;;;5015430;28;20026;-77
2022/06/21 06:17:52;;;;;;;6.00;3.58;;;20.20;59.30;;;;;;5033687;28;20068;-77
2022/06/21 06:20:30;;;;;;;6.90;3.85;;;20.10;58.50;;;;;;5015660;28;20028;-78
2022/06/21 06:23:17;;;;;;;5.70;3.40;;;19.80;59.30;;;;;;5015965;28;20101;-78
2022/06/21 06:25:52;;;;;;;3.58;2.45;;;19.60;59.90;;;;;;5015937;28;20493;-79
2022/06/21 06:28:33;;;;;;;4.97;3.33;;;19.60;60.40;;;;;;5016244;28;20108;-79
2022/06/21 06:31:09;;;;;;;4.47;2.92;;;19.60;60.10;;;;;;5016251;28;20033;-78
2022/06/21 06:33:41;;;;;;;5.57;3.22;;;19.60;60.10;;;;;;5016013;28;20483;-78
2022/06/21 06:36:14;;;;;;;7.40;3.20;;;19.70;59.70;;;;;;5032835;28;20061;-79
2022/06/21 06:38:40;;;;;;;4.97;2.72;;;19.70;59.60;;;;;;5034024;28;20021;-79
2022/06/21 06:41:19;;;;;;;7.15;2.65;;;19.60;59.60;;;;;;5019843;28;20120;-78
2022/06/21 06:43:50;;;;;;;3.38;2.35;;;19.40;60.10;;;;;;5036252;28;20033;-78
2022/06/21 06:46:28;;;;;;;7.10;3.40;;;19.50;59.90;;;;;;5019139;28;20045;-78
2022/06/21 06:49:22;;;;;;;4.30;2.72;;;19.60;59.20;;;;;;5019746;28;20093;-77
2022/06/21 06:52:24;;;;;;;3.70;2.38;;;19.60;58.60;;;;;;5019422;28;20030;-77
2022/06/21 06:55:15;;;;;;;3.30;2.25;;;19.60;58.30;;;;;;5018529;28;20033;-78
2022/06/21 06:58:05;;;;;;;5.90;2.58;;;19.60;58.10;;;;;;5020093;28;20025;-78
2022/06/21 07:00:41;;;;;;;4.47;2.40;;;19.80;57.80;;;;;;5019330;28;20035;-77
2022/06/21 07:03:13;;;;;;;4.47;2.50;;;20.00;58.20;;;;;;5018908;28;20048;-77
2022/06/21 07:05:51;;;;;;;4.88;2.30;;;20.10;57.70;;;;;;5035433;28;20029;-77
2022/06/21 07:08:45;;;;;;;4.75;2.08;;;20.30;57.40;;;;;;5018897;28;20053;-78
2022/06/21 07:11:34;;;;;;;3.10;2.25;;;20.60;57.50;;;;;;5018662;28;20022;-78
2022/06/21 07:14:00;;;;;;;3.25;2.35;;;21.10;56.50;;;;;;5018721;28;20112;-79
2022/06/21 07:16:37;;;;;;;3.22;1.90;;;21.40;55.50;;;;;;5036133;28;20028;-79
2022/06/21 07:19:04;;;;;;;3.03;2.30;;;21.50;54.50;;;;;;5018256;28;20025;-78
2022/06/21 07:21:30;;;;;;;6.18;2.35;;;21.70;54.20;;;;;;5018970;28;20092;-79
2022/06/21 07:23:59;;;;;;;3.47;2.22;;;21.80;53.30;;;;;;5018221;28;20474;-79
2022/06/21 07:26:32;;;;;;;3.30;2.28;;;21.80;53.10;;;;;;5002128;28;20474;-79
2022/06/21 07:29:15;;;;;;;5.00;2.25;;;21.90;53.20;;;;;;5018191;28;20466;-78
2022/06/21 07:31:46;;;;;;;5.35;1.80;;;22.00;53.10;;;;;;5017849;28;20423;-79
2022/06/21 07:34:39;;;;;;;4.78;2.08;;;22.20;52.80;;;;;;5034440;28;20060;-79
2022/06/21 07:37:13;;;;;;;4.60;2.05;;;22.30;52.00;;;;;;5018502;28;20041;-79
2022/06/21 07:39:59;;;;;;;4.28;2.17;;;22.20;51.80;;;;;;5035057;28;20029;-80
2022/06/21 07:42:43;;;;;;;2.38;1.90;;;22.20;51.60;;;;;;5017952;28;20048;-78
2022/06/21 07:45:26;;;;;;;4.78;1.98;;;22.10;51.80;;;;;;5017936;28;20132;-77
2022/06/21 07:48:18;;;;;;;5.90;2.60;;;22.10;52.30;;;;;;5018363;28;20218;-76
2022/06/21 07:51:13;;;;;;;3.75;2.00;;;21.90;51.90;;;;;;5017453;28;20025;-76
2022/06/21 07:54:06;;;;;;;4.55;2.25;;;21.70;52.60;;;;;;5015184;28;20068;-75
2022/06/21 07:56:46;;;;;;;3.30;2.22;;;21.60;52.70;;;;;;5005150;28;20469;-77
2022/06/21 07:59:24;;;;;;;2.55;1.70;;;21.60;52.10;;;;;;5017598;28;20057;-77
2022/06/21 08:07:46;;;;;;;4.55;1.85;;;21.50;52.00;;;;;;5034862;28;20024;-78
2022/06/21 08:10:31;;;;;;;3.58;1.95;;;21.50;50.70;;;;;;5017183;28;20516;-77
2022/06/21 08:12:58;;;;;;;4.33;1.93;;;21.60;50.30;;;;;;5016714;28;20510;-78
2022/06/21 08:15:31;;;;;;;4.40;1.95;;;21.50;51.20;;;;;;5017678;28;20275;-77
2022/06/21 08:18:06;;;;;;;1.98;1.83;;;21.70;50.80;;;;;;5001019;28;20056;-76
2022/06/21 08:20:39;;;;;;;5.45;1.90;;;21.90;50.40;;;;;;5035107;28;20022;-76
2022/06/21 08:23:04;;;;;;;4.50;2.10;;;22.10;50.80;;;;;;5017127;28;20037;-77
2022/06/21 08:25:53;;;;;;;4.00;1.90;;;22.30;49.80;;;;;;5017146;28;20021;-76
2022/06/21 08:28:31;;;;;;;3.45;2.03;;;22.40;49.40;;;;;;5017276;28;20045;-77
2022/06/21 08:31:02;;;;;;;5.97;2.15;;;22.40;49.40;;;;;;5034953;28;20470;-76
2022/06/21 08:33:35;;;;;;;6.63;2.35;;;22.30;49.00;;;;;;5017377;28;20029;-76
2022/06/21 08:36:11;;;;;;;4.75;2.00;;;22.20;49.40;;;;;;5017766;28;20052;-76
2022/06/21 08:39:02;;;;;;;4.95;2.40;;;22.20;50.00;;;;;;5017309;28;20025;-76
2022/06/21 08:44:44;;;;;;;4.40;2.20;;;22.40;49.60;;;;;;5035146;28;20044;-76
2022/06/21 08:47:40;;;;;;;5.78;2.22;;;22.30;49.40;;;;;;5036524;28;20021;-75
2022/06/21 08:50:30;;;;;;;3.30;2.00;;;22.30;49.50;;;;;;5036603;28;20056;-75
2022/06/21 08:53:17;;;;;;;7.60;2.13;;;22.50;49.70;;;;;;5036525;28;20029;-76
2022/06/21 08:55:51;;;;;;;4.47;2.60;;;22.70;49.00;;;;;;5036515;28;20032;-77
2022/06/21 08:58:36;;;;;;;7.03;1.77;;;22.70;50.20;;;;;;5037026;28;20032;-77
2022/06/21 09:01:18;;;;;;;3.60;1.70;;;22.90;49.60;;;;;;5036406;28;20018;-76
2022/06/21 09:04:08;;;;;;;4.63;2.13;;;22.90;48.80;;;;;;5036549;28;20025;-75
2022/06/21 09:07:03;;;;;;;3.08;1.90;;;23.00;49.50;;;;;;5054418;28;20032;-75
2022/06/21 09:09:58;;;;;;;3.53;2.35;;;23.20;49.90;;;;;;5041168;28;20061;-76
2022/06/21 09:13:01;;;;;;;3.50;1.88;;;23.70;50.30;;;;;;5036166;28;20028;-77
2022/06/21 09:15:40;;;;;;;6.20;2.58;;;24.00;47.60;;;;;;5035995;28;20021;-81
2022/06/21 09:18:17;;;;;;;2.08;1.80;;;23.90;47.50;;;;;;5036125;28;20025;-78
2022/06/21 09:21:25;;;;;;;3.90;2.10;;;24.10;48.00;;;;;;5035907;28;20020;-81
2022/06/21 09:24:15;;;;;;;3.25;1.52;;;24.30;48.40;;;;;;5035630;28;20413;-78
2022/06/21 09:27:14;;;;;;;3.60;2.13;;;24.50;47.90;;;;;;5037566;28;20032;-80
2022/06/21 09:30:07;;;;;;;5.22;2.10;;;24.70;48.00;;;;;;5038916;28;20119;-78
2022/06/21 09:33:03;;;;;;;8.05;2.33;;;24.70;45.60;;;;;;5036410;28;20044;-77
2022/06/21 09:36:07;;;;;;;4.32;2.25;;;24.60;46.50;;;;;;5035930;28;20033;-78
2022/06/21 09:39:10;;;;;;;8.25;2.50;;;24.60;47.70;;;;;;5035625;28;20021;-78
2022/06/21 09:41:47;;;;;;;5.78;2.38;;;24.80;48.80;;;;;;5036220;28;20094;-78
2022/06/21 09:44:20;;;;;;;2.97;2.17;;;25.20;48.20;;;;;;5036814;28;20029;-79
2022/06/21 09:47:31;;;;;;;3.97;2.15;;;25.40;47.80;;;;;;5036234;28;20036;-77
2022/06/21 09:50:17;;;;;;;5.10;2.33;;;25.70;47.10;;;;;;4937233;29;20498;-77
2022/06/21 09:53:13;;;;;;;5.47;2.70;;;25.90;45.40;;;;;;5029407;28;20029;-77
2022/06/21 09:56:07;;;;;;;2.75;2.35;;;26.00;45.90;;;;;;5035638;28;20025;-78
2022/06/21 09:58:51;;;;;;;3.67;2.17;;;26.20;47.20;;;;;;5053722;28;20021;-78
2022/06/21 10:01:43;;;;;;;2.50;2.15;;;26.50;45.10;;;;;;5035526;28;20048;-77
2022/06/21 10:04:30;;;;;;;7.40;2.63;;;26.70;45.50;;;;;;5035203;28;20043;-79
2022/06/21 10:07:18;;;;;;;5.20;2.67;;;26.90;44.10;;;;;;5030229;28;20021;-79
2022/06/21 10:10:15;;;;;;;5.47;2.88;;;27.10;44.40;;;;;;5034592;28;20481;-78
2022/06/21 10:12:56;;;;;;;4.13;2.05;;;27.30;44.60;;;;;;5034528;28;20234;-78
2022/06/21 10:15:54;;;;;;;2.40;2.00;;;27.50;43.30;;;;;;5035809;28;20028;-78
2022/06/21 10:18:34;;;;;;;4.95;2.70;;;27.90;43.40;;;;;;5035591;28;20144;-78
2022/06/21 10:21:27;;;;;;;7.43;2.80;;;28.20;43.70;;;;;;5051695;28;20494;-78
2022/06/21 10:24:46;;;;;;;4.82;2.83;;;28.50;42.20;;;;;;5052172;28;20045;-79
2022/06/21 10:27:46;;;;;;;6.13;2.95;;;28.50;40.90;;;;;;4935974;29;20027;-79
2022/06/21 10:30:39;;;;;;;5.47;2.70;;;28.40;41.10;;;;;;5034305;28;20112;-79
2022/06/21 10:33:36;;;;;;;4.10;2.55;;;28.40;41.80;;;;;;5034274;28;20021;-79
2022/06/21 10:36:08;;;;;;;4.70;2.92;;;28.20;42.00;;;;;;5034518;28;20021;-79
2022/06/21 10:38:34;;;;;;;6.25;3.05;;;28.10;42.40;;;;;;5034060;28;20033;-79
2022/06/21 10:41:26;;;;;;;4.43;2.90;;;28.00;42.10;;;;;;5034124;28;20029;-79
2022/06/21 10:44:00;;;;;;;6.88;2.67;;;27.70;42.30;;;;;;5033992;28;20091;-78
2022/06/21 10:46:44;;;;;;;5.97;2.60;;;27.00;43.90;;;;;;5034390;28;20060;-78
2022/06/21 10:49:25;;;;;;;5.47;2.70;;;26.60;44.80;;;;;;5034906;28;20107;-79
2022/06/21 10:52:36;;;;;;;5.68;2.30;;;26.30;47.70;;;;;;5052253;28;20033;-79
2022/06/21 10:55:30;;;;;;;5.70;2.78;;;26.30;47.50;;;;;;5012792;28;20038;-79
2022/06/21 10:58:19;;;;;;;3.97;2.53;;;26.20;46.50;;;;;;5012657;28;20025;-78
2022/06/21 11:01:17;;;;;;;5.72;2.97;;;26.40;46.30;;;;;;5012233;28;20109;-78
2022/06/21 11:04:02;;;;;;;5.32;2.70;;;26.50;46.00;;;;;;5012646;28;20211;-78
2022/06/21 11:06:33;;;;;;;4.03;2.45;;;26.80;45.80;;;;;;5012796;28;20568;-78
2022/06/21 11:09:20;;;;;;;6.35;2.50;;;26.80;44.60;;;;;;5012794;28;20512;-78
2022/06/21 11:11:55;;;;;;;6.05;2.42;;;26.70;44.70;;;;;;5029460;28;20121;-79
2022/06/21 11:14:29;;;;;;;3.72;2.60;;;26.70;44.60;;;;;;5013126;28;20097;-78
2022/06/21 11:17:20;;;;;;;5.15;2.78;;;26.90;43.70;;;;;;5012995;28;20485;-79
2022/06/21 11:20:28;;;;;;;5.35;2.30;;;27.20;44.50;;;;;;5012701;28;20033;-80
2022/06/21 11:23:18;;;;;;;3.88;2.40;;;27.70;43.30;;;;;;5012969;28;20060;-79
2022/06/21 11:26:13;;;;;;;5.40;2.65;;;28.10;41.80;;;;;;5041941;28;20043;-79
2022/06/21 11:29:19;;;;;;;6.18;2.85;;;28.30;42.00;;;;;;5036967;28;20059;-79
2022/06/21 11:32:03;;;;;;;4.63;2.40;;;28.40;42.00;;;;;;5007327;28;20029;-79
2022/06/21 11:34:48;;;;;;;5.90;3.08;;;28.70;42.00;;;;;;5036889;28;20029;-79
2022/06/21 11:37:26;;;;;;;5.43;2.95;;;28.90;41.00;;;;;;5036941;28;20112;-79
2022/06/21 11:40:19;;;;;;;6.75;3.28;;;28.70;40.30;;;;;;5036693;28;20175;-79
2022/06/21 11:42:55;;;;;;;3.67;2.75;;;28.30;41.70;;;;;;5036972;28;20029;-79
2022/06/21 11:45:44;;;;;;;5.78;3.13;;;28.20;42.40;;;;;;5027517;28;20503;-79
2022/06/21 11:48:46;;;;;;;4.88;3.40;;;27.90;42.70;;;;;;5017153;28;20026;-79
2022/06/21 11:51:40;;;;;;;5.25;3.22;;;28.00;43.00;;;;;;5017135;28;20486;-79
2022/06/21 11:54:25;;;;;;;6.53;3.45;;;28.20;43.30;;;;;;5017383;28;20032;-79
2022/06/21 11:57:20;;;;;;;7.63;2.80;;;28.70;43.20;;;;;;5017096;28;20030;-79
2022/06/21 11:59:57;;;;;;;3.50;2.72;;;29.10;42.40;;;;;;5017151;28;20029;-79
2022/06/21 12:02:41;;;;;;;4.85;3.05;;;29.60;40.20;;;;;;5033202;28;20147;-78
2022/06/21 12:05:42;;;;;;;5.75;3.10;;;29.70;39.40;;;;;;5035139;28;20120;-79
2022/06/21 12:08:08;;;;;;;5.60;3.00;;;29.80;41.00;;;;;;5016351;28;20041;-80
2022/06/21 12:10:41;;;;;;;6.28;3.03;;;29.90;39.20;;;;;;5016995;28;20030;-79
2022/06/21 12:13:30;;;;;;;7.60;3.28;;;29.70;39.50;;;;;;5016810;28;20013;-79
2022/06/21 12:16:16;;;;;;;8.02;3.25;;;29.10;42.10;;;;;;5016641;28;20402;-79
2022/06/21 12:19:10;;;;;;;5.90;3.30;;;29.20;41.30;;;;;;5016394;28;20120;-79
2022/06/21 12:21:45;;;;;;;5.70;2.97;;;29.20;41.50;;;;;;5012698;28;20059;-79
2022/06/21 12:24:14;;;;;;;;;;;29.60;40.40;;;;;;5017091;28;20076;-78
2022/06/21 12:26:43;;;;;;;10.05;3.72;;;29.60;39.90;;;;;;5033330;28;19912;-79
2022/06/21 12:29:18;;;;;;;8.85;3.30;;;29.90;40.20;;;;;;5016643;28;20498;-79
2022/06/21 12:31:54;;;;;;;4.57;2.97;;;30.30;39.50;;;;;;5000553;28;20029;-79
2022/06/21 12:34:35;;;;;;;8.20;3.30;;;30.70;38.20;;;;;;5016523;28;20031;-79
2022/06/21 12:37:25;;;;;;;3.85;2.95;;;31.20;38.40;;;;;;5033662;28;20029;-79
2022/06/21 12:40:02;;;;;;;4.32;2.97;;;31.60;37.60;;;;;;5034329;28;20030;-80
2022/06/21 12:42:35;;;;;;;3.50;3.05;;;31.90;35.90;;;;;;5033949;28;20037;-80
2022/06/21 12:45:39;;;;;;;5.85;3.17;;;32.00;35.30;;;;;;5022665;28;20056;-80
2022/06/21 12:48:30;;;;;;;7.30;3.47;;;32.00;36.30;;;;;;4995492;28;20133;-80
2022/06/21 12:51:15;;;;;;;6.82;3.20;;;31.80;35.50;;;;;;4995614;28;20034;-80
2022/06/21 12:54:18;;;;;;;3.38;2.90;;;31.60;37.00;;;;;;4995497;28;20159;-80
2022/06/21 12:57:08;;;;;;;6.57;3.53;;;32.00;37.20;;;;;;4995520;28;20112;-80
2022/06/21 12:59:48;;;;;;;7.57;3.30;;;32.20;33.90;;;;;;4979461;28;20104;-81
2022/06/21 13:02:35;;;;;;;6.82;4.20;;;32.20;33.60;;;;;;4995446;28;20036;-81
2022/06/21 13:05:29;;;;;;;10.90;3.13;;;32.30;33.90;;;;;;4995484;28;20037;-80
2022/06/21 13:08:14;;;;;;;9.98;3.33;;;32.70;33.90;;;;;;5011831;28;20034;-80
2022/06/21 13:10:53;;;;;;;;;;;33.00;34.30;;;;;;4995714;28;20054;-80
2022/06/21 13:13:57;;;;;;;7.20;3.72;;;33.10;32.40;;;;;;4995164;28;19944;-80
2022/06/21 13:16:45;;;;;;;7.38;3.50;;;33.30;32.40;;;;;;4975286;28;20136;-80
2022/06/21 13:19:29;;;;;;;7.00;3.70;;;33.20;33.00;;;;;;4985850;28;20038;-78
2022/06/21 13:22:20;;;;;;;9.02;3.40;;;32.90;33.30;;;;;;5011339;28;20104;-80
2022/06/21 13:25:02;;;;;;;5.57;3.38;;;32.10;35.20;;;;;;4994263;28;20041;-80
2022/06/21 13:28:04;;;;;;;6.72;3.38;;;31.60;36.30;;;;;;5011137;28;20018;-79
2022/06/21 13:30:47;;;;;;;8.27;3.42;;;31.30;36.90;;;;;;5011094;28;20034;-79
2022/06/21 13:33:25;;;;;;;7.97;3.55;;;31.20;37.20;;;;;;4994664;28;20030;-79
2022/06/21 13:36:16;;;;;;;9.02;4.22;;;31.60;36.70;;;;;;4994599;28;20406;-79
2022/06/21 13:38:52;;;;;;;4.60;3.42;;;31.50;36.00;;;;;;4994583;28;20032;-79
2022/06/21 13:44:52;;;;;;;5.65;2.97;;;32.30;34.70;;;;;;5010656;28;20049;-80
2022/06/21 13:47:42;;;;;;;12.63;4.32;;;32.50;34.90;;;;;;5012481;28;20045;-79
2022/06/21 13:50:22;;;;;;;8.65;3.83;;;32.00;35.00;;;;;;5034645;28;20021;-79
2022/06/21 13:53:16;;;;;;;6.22;3.85;;;31.70;35.30;;;;;;5034671;28;20029;-80
2022/06/21 13:56:02;;;;;;;11.43;4.68;;;31.60;35.90;;;;;;5036089;28;20047;-81
2022/06/21 13:58:42;;;;;;;8.63;3.72;;;31.30;36.20;;;;;;5035165;28;20029;-82
2022/06/21 14:01:38;;;;;;;9.13;3.92;;;30.80;37.50;;;;;;5034562;28;20028;-80
2022/06/21 14:04:42;;;;;;;7.50;4.03;;;30.60;38.40;;;;;;5034524;28;20504;-81
2022/06/21 14:07:37;;;;;;;8.35;4.20;;;30.30;39.20;;;;;;5034660;28;20025;-82
2022/06/21 14:10:25;;;;;;;7.75;3.78;;;30.10;39.80;;;;;;5013599;28;20144;-81
2022/06/21 14:13:01;;;;;;;8.85;4.20;;;30.00;40.20;;;;;;5035017;28;20119;-81